KCCA/CCA METAR and TAF weather

Enter ICAO airport designator
Station Type Date Time Source
KCCA METAR 2018/12/12 16:15 UTC NOAA

KCCA 121615Z AUTO 00000KT 10SM BKN028 07/04 A3006 RMK AO2


Station Type Date Time Source
KCCA Decoded METAR 2018/12/12 16:15 UTC NOAA

Station name not available
Dec 12, 2018 - 11:15 AM EST / 2018.12.12 1615 UTC
Wind: Calm:0
Visibility: 10 mile(s):0
Sky conditions: mostly cloudy
Temperature: 44 F (7 C)
Dew Point: 39 F (4 C)
Relative Humidity: 81%
Pressure (altimeter): 30.06 in. Hg (1017 hPa)
ob: KCCA 121615Z AUTO 00000KT 10SM BKN028 07/04 A3006 RMK AO2
cycle: 16

Station Type Date Time Source
KCCA TAF UTC NOAA

Error!


Example: see airport list